Time;durP1;ratioP1;P1;durP2;ratioP2;P2;SDS_P1;SDS_P2;PMS_P1;PMS_P2;Temp;Humidity;BMP_temperature;BMP_pressure;BME280_temperature;BME280_humidity;BME280_pressure;Samples;Min_cycle;Max_cycle;Signal;HPM_P1;HPM_P2
2023/01/15 00:01:22;;;;;;;15.23;3.60;;;8.40;99.90;;;;;;5047500;28;20293;-82
2023/01/15 00:03:49;;;;;;;11.93;3.07;;;8.40;99.90;;;;;;5036076;28;20289;-80
2023/01/15 00:06:16;;;;;;;12.97;2.80;;;8.40;99.90;;;;;;5027115;28;20198;-82
2023/01/15 00:08:44;;;;;;;12.90;2.87;;;8.30;99.90;;;;;;5027021;28;20207;-83
2023/01/15 00:11:11;;;;;;;15.13;3.50;;;8.40;99.90;;;;;;5027533;28;20217;-81
2023/01/15 00:13:38;;;;;;;12.27;3.40;;;8.40;99.90;;;;;;5028217;28;20210;-82
2023/01/15 00:16:06;;;;;;;13.77;3.70;;;8.40;99.90;;;;;;5027325;28;21003;-82
2023/01/15 00:18:34;;;;;;;13.10;4.40;;;8.30;99.90;;;;;;5027750;28;20233;-82
2023/01/15 00:21:02;;;;;;;14.67;3.60;;;8.30;99.90;;;;;;5048745;28;20212;-83
2023/01/15 00:29:06;;;;;;;16.70;4.00;;;8.30;99.90;;;;;;4974404;28;20243;-84
2023/01/15 00:31:35;;;;;;;10.77;3.20;;;8.30;99.90;;;;;;5050061;28;20418;-82
2023/01/15 00:34:04;;;;;;;14.80;3.50;;;8.30;99.90;;;;;;5050431;28;20202;-83
2023/01/15 00:36:32;;;;;;;13.83;3.33;;;8.30;99.90;;;;;;5050599;28;20222;-82
2023/01/15 00:38:59;;;;;;;12.17;3.07;;;8.30;99.90;;;;;;5050156;28;20331;-83
2023/01/15 00:41:26;;;;;;;10.07;3.40;;;8.30;99.90;;;;;;5050856;28;20251;-82
2023/01/15 00:43:54;;;;;;;13.40;3.43;;;8.20;99.90;;;;;;5033800;28;20207;-82
2023/01/15 00:46:21;;;;;;;17.27;4.50;;;8.20;99.90;;;;;;5030404;28;20223;-83
2023/01/15 00:48:48;;;;;;;10.17;3.13;;;8.20;99.90;;;;;;5030208;28;20206;-82
2023/01/15 00:51:16;;;;;;;13.07;3.47;;;8.20;99.90;;;;;;5030754;28;20218;-80
2023/01/15 00:53:43;;;;;;;15.23;2.90;;;8.20;99.90;;;;;;5030601;28;20623;-82
2023/01/15 00:56:10;;;;;;;14.07;3.57;;;8.10;99.90;;;;;;5039787;28;20198;-83
2023/01/15 00:58:37;;;;;;;11.07;2.70;;;8.10;99.90;;;;;;5049886;28;20275;-83
2023/01/15 01:01:04;;;;;;;12.00;3.03;;;8.10;99.90;;;;;;5050197;28;20212;-84
2023/01/15 01:03:31;;;;;;;15.27;3.40;;;8.10;99.90;;;;;;5049616;28;20208;-83
2023/01/15 01:06:01;;;;;;;18.43;4.40;;;8.10;99.90;;;;;;5050215;28;20206;-85
2023/01/15 01:08:30;;;;;;;14.17;3.20;;;8.20;99.90;;;;;;5048971;28;20186;-83
2023/01/15 01:11:04;;;;;;;13.87;3.43;;;8.10;99.90;;;;;;5036673;28;20293;-86
2023/01/15 01:13:32;;;;;;;17.00;4.90;;;8.10;99.90;;;;;;5027363;28;20281;-83
2023/01/15 01:15:59;;;;;;;12.30;3.10;;;8.10;99.90;;;;;;5042684;28;20214;-86
2023/01/15 01:18:26;;;;;;;14.83;3.30;;;8.20;99.90;;;;;;5050744;28;20321;-85
2023/01/15 01:20:53;;;;;;;15.77;3.77;;;8.20;99.90;;;;;;5050623;28;20214;-83
2023/01/15 01:23:22;;;;;;;13.17;4.17;;;8.20;99.90;;;;;;5050693;28;20202;-85
2023/01/15 01:25:50;;;;;;;20.53;4.57;;;8.10;99.90;;;;;;5049014;28;20198;-86
2023/01/15 01:28:17;;;;;;;12.90;3.47;;;8.20;99.90;;;;;;5030191;28;20234;-82
2023/01/15 01:30:44;;;;;;;15.00;3.60;;;8.10;99.90;;;;;;5029640;28;20298;-85
2023/01/15 01:33:11;;;;;;;9.80;3.23;;;8.10;99.90;;;;;;5030749;28;20206;-83
2023/01/15 01:35:38;;;;;;;10.80;3.70;;;8.10;99.90;;;;;;5034553;28;20225;-88
2023/01/15 01:38:05;;;;;;;14.33;3.23;;;8.10;99.90;;;;;;5050295;28;20501;-85
2023/01/15 01:40:32;;;;;;;10.97;3.00;;;8.10;99.90;;;;;;5047914;28;20555;-83
2023/01/15 01:43:00;;;;;;;11.53;3.10;;;8.10;99.90;;;;;;5049949;28;20201;-82
2023/01/15 01:45:28;;;;;;;13.70;2.97;;;8.10;99.90;;;;;;5049351;28;20249;-89
2023/01/15 01:47:59;;;;;;;9.30;2.43;;;8.10;99.90;;;;;;5040687;28;20211;-84
2023/01/15 01:50:28;;;;;;;11.57;3.37;;;8.10;99.90;;;;;;5030865;28;20285;-85
2023/01/15 01:52:59;;;;;;;18.23;4.17;;;8.10;99.90;;;;;;5030535;28;20364;-84
2023/01/15 01:55:27;;;;;;;14.70;4.47;;;8.10;99.90;;;;;;5048603;28;20205;-84
2023/01/15 01:57:58;;;;;;;12.73;3.50;;;8.10;99.90;;;;;;5049352;28;20214;-82
2023/01/15 02:00:29;;;;;;;13.13;3.83;;;8.10;99.90;;;;;;5049852;28;20524;-84
2023/01/15 02:02:56;;;;;;;17.77;4.63;;;8.10;99.90;;;;;;5052292;28;20235;-82
2023/01/15 02:05:29;;;;;;;22.67;4.63;;;8.00;99.90;;;;;;5069618;28;20201;-82
2023/01/15 02:07:56;;;;;;;20.53;5.57;;;8.00;99.90;;;;;;5069791;28;20207;-82
2023/01/15 02:10:23;;;;;;;19.83;4.60;;;8.00;99.90;;;;;;5050588;28;20213;-85
2023/01/15 02:12:58;;;;;;;17.27;3.30;;;8.00;99.90;;;;;;5028679;28;20598;-81
2023/01/15 02:15:31;;;;;;;10.73;3.67;;;8.00;99.90;;;;;;5028315;28;20707;-83
2023/01/15 02:18:07;;;;;;;16.20;3.53;;;8.10;99.90;;;;;;5028372;28;20309;-84
2023/01/15 02:20:39;;;;;;;14.03;4.70;;;8.10;99.90;;;;;;5028182;28;20200;-85
2023/01/15 02:23:32;;;;;;;16.53;4.97;;;8.10;99.90;;;;;;5029181;28;20867;-85
2023/01/15 02:26:24;;;;;;;21.63;4.13;;;8.10;99.90;;;;;;5029857;28;20622;-83
2023/01/15 02:28:56;;;;;;;15.73;3.20;;;8.10;99.90;;;;;;5029363;28;20225;-84
2023/01/15 02:31:27;;;;;;;14.77;3.20;;;8.20;99.90;;;;;;5029608;28;20217;-83
2023/01/15 02:34:00;;;;;;;10.37;2.93;;;8.10;99.90;;;;;;5040764;28;20205;-84
2023/01/15 02:36:31;;;;;;;12.80;4.17;;;8.10;99.90;;;;;;5048358;28;20210;-84
2023/01/15 02:39:01;;;;;;;12.83;4.13;;;8.10;99.90;;;;;;5046702;28;20328;-87
2023/01/15 02:41:33;;;;;;;15.10;3.60;;;8.00;99.90;;;;;;5044104;28;20760;-85
2023/01/15 02:44:03;;;;;;;22.00;3.77;;;8.10;99.90;;;;;;5049197;28;20867;-80
2023/01/15 02:46:34;;;;;;;21.20;4.07;;;8.00;99.90;;;;;;5049201;28;20242;-86
2023/01/15 02:49:03;;;;;;;12.03;3.73;;;8.00;99.90;;;;;;5045591;28;20490;-83
2023/01/15 02:51:37;;;;;;;13.40;3.37;;;8.00;99.90;;;;;;5024275;28;20205;-86
2023/01/15 02:54:09;;;;;;;10.90;2.90;;;8.00;99.90;;;;;;5030128;28;20513;-85
2023/01/15 02:56:38;;;;;;;8.93;2.53;;;8.00;99.90;;;;;;5028447;28;20230;-84
2023/01/15 02:59:10;;;;;;;12.70;2.77;;;8.00;99.90;;;;;;5028428;28;20309;-86
2023/01/15 03:01:42;;;;;;;8.63;3.37;;;8.00;99.90;;;;;;5028578;28;20822;-85
2023/01/15 03:04:15;;;;;;;17.37;3.40;;;8.00;99.90;;;;;;5034178;28;20489;-85
2023/01/15 03:06:46;;;;;;;14.33;3.20;;;7.90;99.90;;;;;;5049769;28;20650;-86
2023/01/15 03:09:14;;;;;;;13.83;3.40;;;7.90;99.90;;;;;;5049813;28;20365;-85
2023/01/15 03:11:47;;;;;;;19.07;4.23;;;7.90;99.90;;;;;;5049164;28;20208;-84
2023/01/15 03:14:20;;;;;;;13.40;3.30;;;7.90;99.90;;;;;;5037554;28;20210;-85
2023/01/15 03:16:50;;;;;;;13.00;2.60;;;8.00;99.90;;;;;;5029653;28;20186;-86
2023/01/15 03:19:23;;;;;;;19.53;3.50;;;7.90;99.90;;;;;;5029498;28;20884;-86
2023/01/15 03:21:55;;;;;;;13.70;2.63;;;7.90;99.90;;;;;;5029508;28;20317;-86
2023/01/15 03:24:29;;;;;;;14.83;3.57;;;7.90;99.90;;;;;;5029444;28;20195;-87
2023/01/15 03:26:56;;;;;;;10.73;2.90;;;7.90;99.90;;;;;;5029115;28;20950;-87
2023/01/15 03:29:28;;;;;;;14.73;3.63;;;7.90;99.90;;;;;;5029297;28;20202;-85
2023/01/15 03:31:55;;;;;;;9.93;2.67;;;7.90;99.90;;;;;;5028231;28;20230;-85
2023/01/15 03:34:24;;;;;;;17.27;3.40;;;7.90;99.90;;;;;;5029146;28;20205;-84
2023/01/15 03:36:51;;;;;;;10.37;2.90;;;7.80;99.90;;;;;;5029083;28;20201;-84
2023/01/15 03:39:19;;;;;;;12.27;3.40;;;7.80;99.90;;;;;;5028446;28;20238;-86
2023/01/15 03:41:57;;;;;;;13.07;3.27;;;7.80;99.90;;;;;;5028937;28;20281;-86
2023/01/15 03:44:37;;;;;;;6.87;2.60;;;7.80;99.90;;;;;;5029071;28;20513;-85
2023/01/15 03:47:12;;;;;;;16.87;3.60;;;7.80;99.90;;;;;;5021240;28;20292;-87
2023/01/15 03:49:51;;;;;;;12.77;3.00;;;7.80;99.90;;;;;;5028560;28;20202;-83
2023/01/15 03:52:25;;;;;;;10.90;3.43;;;7.80;99.90;;;;;;5029031;28;20214;-83
2023/01/15 03:55:04;;;;;;;13.83;2.97;;;7.80;99.90;;;;;;5031113;28;20186;-85
2023/01/15 03:57:37;;;;;;;15.57;2.83;;;7.80;99.90;;;;;;5031920;28;20226;-85
2023/01/15 04:00:13;;;;;;;14.37;3.40;;;7.80;99.90;;;;;;5029090;28;20587;-81
2023/01/15 04:02:41;;;;;;;18.10;4.60;;;7.80;99.90;;;;;;5030044;28;20305;-83
2023/01/15 04:05:08;;;;;;;17.93;4.03;;;7.80;99.90;;;;;;5028947;28;20201;-82
2023/01/15 04:07:35;;;;;;;12.50;3.17;;;7.80;99.90;;;;;;5042806;28;20205;-83
2023/01/15 04:10:02;;;;;;;12.07;2.53;;;7.80;99.90;;;;;;5046476;28;20194;-86
2023/01/15 04:12:31;;;;;;;20.07;3.37;;;7.80;99.90;;;;;;5048255;28;20271;-82
2023/01/15 04:14:58;;;;;;;14.60;3.37;;;7.80;99.90;;;;;;5048197;28;20206;-80
2023/01/15 04:17:26;;;;;;;12.67;3.60;;;7.80;99.90;;;;;;5035499;28;20207;-84
2023/01/15 04:19:53;;;;;;;19.57;3.10;;;7.80;99.90;;;;;;5039285;28;20325;-83
2023/01/15 04:22:20;;;;;;;12.87;2.90;;;7.80;99.90;;;;;;5050081;28;20301;-83
2023/01/15 04:24:47;;;;;;;16.07;3.23;;;7.80;99.90;;;;;;5047435;28;20221;-80
2023/01/15 04:27:14;;;;;;;11.63;2.90;;;7.80;99.90;;;;;;5038265;28;20213;-82
2023/01/15 04:29:41;;;;;;;13.50;2.70;;;7.80;99.90;;;;;;5027119;28;20199;-82
2023/01/15 04:32:08;;;;;;;10.43;3.07;;;7.90;99.90;;;;;;5027976;28;20214;-76
2023/01/15 04:34:36;;;;;;;13.83;2.67;;;7.80;99.90;;;;;;5027263;28;20207;-79
2023/01/15 04:37:03;;;;;;;13.90;2.60;;;7.90;99.90;;;;;;5026384;28;20233;-77
2023/01/15 04:39:30;;;;;;;8.93;2.33;;;7.90;99.90;;;;;;5027225;28;20399;-80
2023/01/15 04:44:42;;;;;;;11.50;2.33;;;7.90;99.90;;;;;;5026891;28;20201;-80
2023/01/15 04:47:08;;;;;;;11.17;2.30;;;7.90;99.90;;;;;;5027143;28;20312;-78
2023/01/15 04:49:37;;;;;;;17.80;2.67;;;7.90;99.90;;;;;;5026436;28;20199;-80
2023/01/15 04:52:04;;;;;;;15.67;3.40;;;7.80;99.90;;;;;;5037484;28;20227;-82
2023/01/15 04:54:32;;;;;;;15.43;2.93;;;7.80;99.90;;;;;;5046079;28;20277;-82
2023/01/15 04:56:59;;;;;;;14.50;3.13;;;7.80;99.90;;;;;;5045858;28;20894;-81
2023/01/15 04:59:27;;;;;;;15.70;3.33;;;7.90;99.90;;;;;;5045479;28;20516;-81
2023/01/15 05:01:55;;;;;;;10.00;2.70;;;7.90;99.90;;;;;;5046860;28;20202;-78
2023/01/15 05:04:22;;;;;;;8.70;3.07;;;7.80;99.90;;;;;;5045219;28;20208;-78
2023/01/15 05:06:52;;;;;;;10.97;2.40;;;7.80;99.90;;;;;;5045155;28;20204;-82
2023/01/15 05:09:19;;;;;;;11.47;2.53;;;7.70;99.90;;;;;;5029992;28;20539;-78
2023/01/15 05:11:45;;;;;;;9.07;2.40;;;7.60;99.90;;;;;;5023898;28;20298;-80
2023/01/15 05:14:12;;;;;;;15.00;3.33;;;7.60;99.90;;;;;;5024181;28;20213;-81
2023/01/15 05:16:39;;;;;;;17.70;3.87;;;7.60;99.90;;;;;;5025252;28;20214;-82
2023/01/15 05:19:07;;;;;;;16.90;3.87;;;7.60;99.90;;;;;;5025672;28;20228;-84
2023/01/15 05:21:37;;;;;;;12.53;2.90;;;7.60;99.90;;;;;;5026239;28;20202;-78
2023/01/15 05:24:07;;;;;;;15.50;3.33;;;7.50;99.90;;;;;;5021211;28;20210;-82
2023/01/15 05:26:35;;;;;;;9.97;2.80;;;7.50;99.90;;;;;;5025950;28;20319;-79
2023/01/15 05:29:03;;;;;;;11.93;3.03;;;7.50;99.90;;;;;;5026754;28;20232;-85
2023/01/15 05:31:32;;;;;;;10.40;2.60;;;7.50;99.90;;;;;;5029996;28;20209;-81
2023/01/15 05:34:00;;;;;;;20.37;3.77;;;7.40;99.90;;;;;;5030156;28;20294;-87
2023/01/15 05:36:29;;;;;;;12.73;3.73;;;7.50;99.90;;;;;;5028953;28;20209;-83
2023/01/15 05:38:58;;;;;;;15.27;3.23;;;7.50;99.90;;;;;;5027853;28;20333;-87
2023/01/15 05:44:13;;;;;;;11.20;3.20;;;7.40;99.90;;;;;;5027780;28;20213;-84
2023/01/15 05:46:42;;;;;;;14.10;3.33;;;7.40;99.90;;;;;;5029018;28;20229;-85
2023/01/15 05:49:11;;;;;;;15.53;2.97;;;7.30;99.90;;;;;;5029560;28;20238;-83
2023/01/15 05:51:38;;;;;;;9.67;2.10;;;7.30;99.90;;;;;;5030476;28;20201;-84
2023/01/15 05:54:07;;;;;;;9.53;3.17;;;7.30;99.90;;;;;;5047041;28;20198;-84
2023/01/15 05:56:37;;;;;;;19.47;4.17;;;7.30;99.90;;;;;;5042165;28;20213;-81
2023/01/15 05:59:04;;;;;;;14.87;4.43;;;7.30;99.90;;;;;;5025365;28;20221;-80
2023/01/15 06:01:31;;;;;;;16.30;3.20;;;7.20;99.90;;;;;;5037747;28;20553;-81
2023/01/15 06:03:59;;;;;;;11.00;4.10;;;7.20;99.90;;;;;;5046750;28;20216;-83
2023/01/15 06:06:27;;;;;;;18.23;3.90;;;7.10;99.90;;;;;;5047703;28;20214;-82
2023/01/15 06:08:54;;;;;;;16.03;3.57;;;7.10;99.90;;;;;;5048178;28;20272;-83
2023/01/15 06:11:21;;;;;;;15.17;3.30;;;7.10;99.90;;;;;;5048126;28;20324;-84
2023/01/15 06:13:49;;;;;;;17.53;3.53;;;7.10;99.90;;;;;;5045350;28;20201;-80
2023/01/15 06:16:17;;;;;;;16.53;4.07;;;7.10;99.90;;;;;;5045886;28;20206;-81
2023/01/15 06:18:44;;;;;;;15.47;3.63;;;7.10;99.90;;;;;;5045382;28;20364;-79
2023/01/15 06:21:13;;;;;;;13.03;2.70;;;7.00;99.90;;;;;;5026921;28;20298;-78
2023/01/15 06:23:40;;;;;;;9.20;2.93;;;7.10;99.90;;;;;;5024683;28;20205;-79
2023/01/15 06:26:10;;;;;;;16.73;3.57;;;7.10;99.90;;;;;;5024338;28;20210;-78
2023/01/15 06:28:37;;;;;;;15.83;3.83;;;7.10;99.90;;;;;;5024641;28;20272;-82
2023/01/15 06:31:08;;;;;;;13.60;3.40;;;7.10;99.90;;;;;;5036067;28;20214;-81
2023/01/15 06:33:35;;;;;;;13.90;3.27;;;7.10;99.90;;;;;;5043771;28;20236;-80
2023/01/15 06:36:04;;;;;;;9.50;2.87;;;7.20;99.90;;;;;;5035515;28;20215;-79
2023/01/15 06:38:31;;;;;;;17.87;3.70;;;7.20;99.90;;;;;;5023531;28;20253;-77
2023/01/15 06:40:59;;;;;;;17.50;3.67;;;7.10;99.90;;;;;;5024390;28;20217;-81
2023/01/15 06:48:57;;;;;;;17.70;4.93;;;7.10;99.90;;;;;;5024272;28;20213;-81
2023/01/15 06:51:24;;;;;;;12.83;4.60;;;7.20;99.90;;;;;;5023025;28;20221;-83
2023/01/15 06:53:51;;;;;;;16.63;3.80;;;7.20;99.90;;;;;;5022677;28;20213;-81
2023/01/15 06:56:18;;;;;;;12.20;2.73;;;7.20;99.90;;;;;;5023505;28;20209;-87
2023/01/15 06:58:45;;;;;;;14.70;3.13;;;7.20;99.90;;;;;;5043482;28;20323;-84
2023/01/15 07:01:15;;;;;;;15.60;4.53;;;7.20;99.90;;;;;;5047373;28;20198;-88
2023/01/15 07:03:43;;;;;;;12.83;3.77;;;7.20;99.90;;;;;;5028398;28;20211;-84
2023/01/15 07:06:11;;;;;;;15.83;3.90;;;7.20;99.90;;;;;;5035596;28;20553;-87
2023/01/15 07:08:38;;;;;;;14.67;3.47;;;7.20;99.90;;;;;;5048436;28;20197;-85
2023/01/15 07:11:07;;;;;;;15.43;3.97;;;7.20;99.90;;;;;;5032160;28;20206;-85
2023/01/15 07:13:35;;;;;;;16.67;4.33;;;7.20;99.90;;;;;;5027907;28;20837;-80
2023/01/15 07:16:04;;;;;;;12.17;3.63;;;7.30;99.90;;;;;;5025119;28;20202;-82
2023/01/15 07:18:33;;;;;;;18.73;3.90;;;7.30;99.90;;;;;;5022553;28;20384;-82
2023/01/15 07:21:00;;;;;;;14.47;3.60;;;7.30;99.90;;;;;;5022667;28;20199;-79
2023/01/15 07:23:28;;;;;;;20.37;4.30;;;7.40;99.90;;;;;;5022987;28;20186;-78
2023/01/15 07:25:55;;;;;;;20.27;4.87;;;7.40;99.90;;;;;;5023051;28;20258;-79
2023/01/15 07:28:23;;;;;;;15.77;4.17;;;7.40;99.90;;;;;;5023208;28;20429;-80
2023/01/15 07:30:50;;;;;;;19.33;4.07;;;7.40;99.90;;;;;;5026618;28;20306;-78
2023/01/15 07:33:17;;;;;;;15.20;5.43;;;7.50;99.90;;;;;;5027262;28;20199;-80
2023/01/15 07:35:45;;;;;;;16.80;3.87;;;7.50;99.90;;;;;;5027128;28;21004;-80
2023/01/15 07:38:12;;;;;;;15.23;3.77;;;7.50;99.90;;;;;;5026643;28;20244;-78
2023/01/15 07:40:39;;;;;;;24.93;5.47;;;7.50;99.90;;;;;;5026941;28;20235;-78
2023/01/15 07:51:20;;;;;;;15.10;3.40;;;7.40;99.90;;;;;;5027291;28;20214;-78
2023/01/15 07:56:39;;;;;;;20.00;4.03;;;7.40;99.90;;;;;;5045538;28;20209;-78
2023/01/15 07:59:06;;;;;;;40.93;6.77;;;7.40;99.90;;;;;;5053639;28;20300;-79
2023/01/15 08:01:33;;;;;;;14.50;4.30;;;7.30;99.90;;;;;;5049134;28;20582;-78
2023/01/15 08:04:00;;;;;;;18.87;4.87;;;7.30;99.90;;;;;;5058846;28;20215;-77
2023/01/15 08:06:28;;;;;;;13.10;2.90;;;7.30;99.90;;;;;;5058853;28;20236;-77
2023/01/15 08:08:55;;;;;;;15.37;4.30;;;7.30;99.90;;;;;;5048316;28;20237;-80
2023/01/15 08:16:50;;;;;;;19.83;5.77;;;7.20;99.90;;;;;;5044718;28;20193;-80
2023/01/15 08:19:17;;;;;;;18.10;4.77;;;7.20;99.90;;;;;;5041109;28;20230;-79
2023/01/15 08:21:46;;;;;;;14.97;4.20;;;7.20;99.90;;;;;;5046239;28;20202;-80
2023/01/15 08:24:13;;;;;;;14.93;3.13;;;7.30;99.90;;;;;;5038153;28;20226;-81
2023/01/15 08:26:40;;;;;;;10.87;2.53;;;7.30;99.90;;;;;;5026978;28;20333;-80
2023/01/15 08:29:07;;;;;;;15.13;3.10;;;7.30;99.90;;;;;;5026478;28;20203;-79
2023/01/15 08:31:35;;;;;;;13.00;3.10;;;7.30;99.90;;;;;;5041719;28;20202;-80
2023/01/15 08:34:02;;;;;;;17.30;3.53;;;7.40;99.90;;;;;;5046432;28;20297;-80
2023/01/15 08:36:29;;;;;;;13.93;3.30;;;7.40;99.90;;;;;;5046381;28;20202;-79
2023/01/15 08:38:57;;;;;;;25.80;4.90;;;7.40;99.90;;;;;;5045479;28;20594;-81
2023/01/15 08:41:24;;;;;;;16.43;5.33;;;7.40;99.90;;;;;;5044383;28;20206;-79
2023/01/15 08:43:51;;;;;;;16.20;3.50;;;7.50;99.90;;;;;;5047163;28;20206;-80
2023/01/15 08:46:18;;;;;;;19.10;4.57;;;7.50;99.90;;;;;;5038521;28;20272;-79
2023/01/15 08:48:45;;;;;;;15.20;3.27;;;7.50;99.90;;;;;;5026675;28;20206;-80
2023/01/15 08:51:12;;;;;;;9.33;2.60;;;7.60;99.90;;;;;;5027131;28;20209;-80
2023/01/15 08:53:39;;;;;;;14.67;3.77;;;7.60;99.90;;;;;;5026762;28;20457;-81
2023/01/15 08:56:13;;;;;;;14.27;3.73;;;7.60;99.90;;;;;;5026343;28;20214;-79
2023/01/15 08:58:40;;;;;;;18.70;3.70;;;7.70;99.90;;;;;;5027240;28;20205;-80
2023/01/15 09:01:08;;;;;;;14.70;4.27;;;7.70;99.90;;;;;;5026679;28;20236;-79
2023/01/15 09:03:36;;;;;;;13.73;3.73;;;7.70;99.90;;;;;;5025978;28;20676;-81
2023/01/15 09:06:04;;;;;;;17.93;3.27;;;7.80;99.90;;;;;;5026884;28;20202;-80
2023/01/15 09:08:32;;;;;;;17.90;4.67;;;7.80;99.90;;;;;;5025683;28;20217;-81
2023/01/15 09:10:59;;;;;;;24.73;5.60;;;7.90;99.90;;;;;;5026270;28;20781;-79
2023/01/15 09:13:29;;;;;;;21.97;5.87;;;7.90;99.90;;;;;;5027108;28;20215;-81
2023/01/15 09:15:59;;;;;;;18.63;4.87;;;7.90;99.90;;;;;;5026731;28;20206;-83
2023/01/15 09:18:29;;;;;;;12.63;4.10;;;8.00;99.90;;;;;;5026173;28;20198;-80
2023/01/15 09:20:56;;;;;;;20.97;5.10;;;8.00;99.90;;;;;;5026321;28;20284;-81
2023/01/15 09:23:24;;;;;;;18.50;4.90;;;8.00;99.90;;;;;;5026116;28;20199;-78
2023/01/15 09:25:53;;;;;;;23.50;4.47;;;8.10;99.90;;;;;;5026031;28;20329;-79
2023/01/15 09:28:21;;;;;;;16.07;4.47;;;8.10;99.90;;;;;;5027351;28;20207;-81
2023/01/15 09:30:49;;;;;;;18.13;5.17;;;8.10;99.90;;;;;;5026659;28;20195;-79
2023/01/15 09:33:16;;;;;;;19.33;4.13;;;8.20;99.90;;;;;;5045395;28;20202;-81
2023/01/15 09:35:43;;;;;;;12.57;3.53;;;8.10;99.90;;;;;;5035289;28;20678;-81
2023/01/15 09:38:12;;;;;;;18.57;4.20;;;8.20;99.90;;;;;;5025561;28;20638;-80
2023/01/15 09:40:47;;;;;;;23.23;5.10;;;8.20;99.90;;;;;;5041239;28;20217;-81
2023/01/15 09:43:24;;;;;;;17.83;5.13;;;8.10;99.90;;;;;;5037648;28;20196;-78
2023/01/15 09:45:56;;;;;;;20.43;5.47;;;8.10;99.90;;;;;;5049048;28;20886;-80
2023/01/15 09:48:33;;;;;;;20.43;4.70;;;8.20;99.90;;;;;;5044736;28;20206;-77
2023/01/15 09:51:12;;;;;;;19.77;5.57;;;8.10;99.90;;;;;;5040811;28;20208;-79
2023/01/15 09:54:07;;;;;;;19.33;4.07;;;8.10;99.90;;;;;;5039990;28;20328;-78
2023/01/15 09:56:36;;;;;;;23.93;5.20;;;8.10;99.90;;;;;;5040361;28;20317;-78
2023/01/15 09:59:15;;;;;;;23.90;4.70;;;8.20;99.90;;;;;;5037171;28;20206;-78
2023/01/15 10:01:43;;;;;;;17.87;4.07;;;8.20;99.90;;;;;;5038418;28;20212;-79
2023/01/15 10:04:17;;;;;;;18.93;4.60;;;8.20;99.90;;;;;;5033237;28;20257;-77
2023/01/15 10:06:50;;;;;;;15.37;4.00;;;8.20;99.90;;;;;;5040778;28;20206;-79
2023/01/15 10:09:23;;;;;;;16.80;4.07;;;8.20;99.90;;;;;;5037025;28;20218;-81
2023/01/15 10:14:48;;;;;;;22.70;5.37;;;8.30;99.90;;;;;;5045536;28;20319;-80
2023/01/15 10:17:33;;;;;;;20.10;5.27;;;8.30;99.90;;;;;;5044152;28;20201;-78
2023/01/15 10:20:00;;;;;;;15.87;3.40;;;8.30;99.90;;;;;;5033262;28;20689;-82
2023/01/15 10:22:39;;;;;;;18.80;4.27;;;8.30;99.90;;;;;;5046181;28;20244;-82
2023/01/15 10:25:15;;;;;;;14.17;4.13;;;8.30;99.90;;;;;;5045923;28;20834;-80
2023/01/15 10:27:46;;;;;;;16.60;4.60;;;8.40;99.90;;;;;;5040244;28;20646;-82
2023/01/15 10:30:16;;;;;;;19.50;3.90;;;8.50;99.90;;;;;;5033700;28;20202;-79
2023/01/15 10:32:50;;;;;;;17.17;5.23;;;8.50;99.90;;;;;;5025772;28;20207;-79
2023/01/15 10:35:41;;;;;;;18.30;4.70;;;8.50;99.90;;;;;;5043887;28;20300;-78
2023/01/15 10:38:16;;;;;;;24.07;5.13;;;8.50;99.90;;;;;;5031802;28;20244;-79
2023/01/15 10:41:06;;;;;;;16.13;3.77;;;8.60;99.90;;;;;;5024137;28;20532;-82
2023/01/15 10:43:44;;;;;;;20.30;3.93;;;8.60;99.90;;;;;;5012831;28;20187;-80
2023/01/15 10:46:14;;;;;;;15.97;4.03;;;8.60;99.90;;;;;;5023146;28;20231;-77
2023/01/15 10:48:45;;;;;;;18.13;4.13;;;8.70;99.90;;;;;;5009898;28;20274;-80
2023/01/15 10:51:16;;;;;;;13.27;3.67;;;8.70;99.90;;;;;;5005427;28;20245;-80
2023/01/15 10:53:49;;;;;;;22.03;4.90;;;8.70;99.90;;;;;;5005267;28;20195;-81
2023/01/15 10:56:26;;;;;;;21.70;5.40;;;8.80;99.90;;;;;;5008294;28;20209;-79
2023/01/15 10:58:58;;;;;;;15.30;4.77;;;8.80;99.90;;;;;;5014692;28;20515;-80
2023/01/15 11:01:28;;;;;;;20.80;4.17;;;8.80;99.90;;;;;;5024542;28;20211;-79
2023/01/15 11:03:56;;;;;;;27.87;4.97;;;8.70;99.90;;;;;;5019011;28;20300;-79
2023/01/15 11:06:24;;;;;;;17.30;4.33;;;8.80;99.90;;;;;;5022276;28;20218;-81
2023/01/15 11:08:53;;;;;;;17.33;4.70;;;8.80;99.90;;;;;;5024077;28;20206;-80
2023/01/15 11:19:40;;;;;;;24.90;4.67;;;9.00;99.90;;;;;;5015399;28;20198;-78
2023/01/15 11:22:10;;;;;;;17.53;4.50;;;9.00;99.90;;;;;;5020738;28;20525;-78
2023/01/15 11:24:44;;;;;;;23.50;4.63;;;9.00;99.90;;;;;;5020949;28;20207;-83
2023/01/15 11:27:17;;;;;;;18.80;4.77;;;9.00;99.90;;;;;;5022419;28;20206;-80
2023/01/15 11:29:45;;;;;;;21.07;4.90;;;9.00;99.90;;;;;;5021990;28;20313;-80
2023/01/15 11:32:21;;;;;;;18.67;4.17;;;9.00;99.90;;;;;;5009096;28;20203;-82
2023/01/15 11:34:55;;;;;;;11.83;3.80;;;9.00;99.90;;;;;;5017643;28;20899;-78
2023/01/15 11:37:22;;;;;;;20.60;4.77;;;9.00;99.90;;;;;;5025302;28;20263;-80
2023/01/15 11:39:53;;;;;;;14.40;3.90;;;9.00;99.90;;;;;;5040837;28;20205;-80
2023/01/15 11:50:53;;;;;;;18.43;4.63;;;9.20;99.90;;;;;;5039266;28;20248;-78
2023/01/15 11:53:24;;;;;;;18.43;3.50;;;9.30;99.90;;;;;;5042215;28;20287;-79
2023/01/15 11:55:58;;;;;;;18.40;4.93;;;9.30;99.90;;;;;;5036836;28;20198;-80
2023/01/15 11:58:32;;;;;;;20.30;4.60;;;9.30;99.90;;;;;;5038919;28;20202;-81
2023/01/15 12:00:59;;;;;;;17.63;4.27;;;9.20;99.90;;;;;;5036776;28;20217;-80
2023/01/15 12:03:33;;;;;;;17.10;4.50;;;9.20;99.90;;;;;;5023759;28;20199;-77
2023/01/15 12:06:04;;;;;;;21.80;4.67;;;9.20;99.90;;;;;;5025430;28;20191;-84
2023/01/15 12:08:56;;;;;;;21.53;5.00;;;9.20;99.90;;;;;;5043070;28;20214;-81
2023/01/15 12:11:53;;;;;;;26.23;5.60;;;9.20;99.90;;;;;;5042547;28;20202;-81
2023/01/15 12:14:48;;;;;;;16.00;3.97;;;9.20;99.90;;;;;;5032278;28;20252;-76
2023/01/15 12:17:29;;;;;;;24.10;4.07;;;9.20;99.90;;;;;;5039218;28;20199;-76
2023/01/15 12:20:03;;;;;;;20.83;4.63;;;9.20;99.90;;;;;;5047534;28;20198;-80
2023/01/15 12:22:48;;;;;;;16.50;4.00;;;9.10;99.90;;;;;;5033760;28;20226;-81
2023/01/15 12:25:26;;;;;;;17.63;4.50;;;9.10;99.90;;;;;;5021188;28;20203;-79
2023/01/15 12:28:03;;;;;;;15.33;4.20;;;9.10;99.90;;;;;;5028243;28;20218;-79
2023/01/15 12:30:38;;;;;;;16.37;5.20;;;9.10;99.90;;;;;;5028559;28;20325;-79
2023/01/15 12:33:16;;;;;;;19.33;4.13;;;9.10;99.90;;;;;;5027198;28;20190;-81
2023/01/15 12:35:48;;;;;;;17.60;5.60;;;9.10;99.90;;;;;;5029823;28;20206;-78
2023/01/15 12:38:23;;;;;;;13.90;4.50;;;9.00;99.90;;;;;;5028542;28;20239;-79
2023/01/15 12:40:54;;;;;;;13.47;4.00;;;9.00;99.90;;;;;;5027514;28;20308;-79
2023/01/15 12:46:15;;;;;;;15.17;4.07;;;9.00;99.90;;;;;;5028572;28;20221;-79
2023/01/15 12:48:50;;;;;;;16.83;4.17;;;9.10;99.90;;;;;;5026532;28;20222;-81
2023/01/15 12:51:27;;;;;;;19.43;4.47;;;9.10;99.90;;;;;;5027913;28;20307;-78
2023/01/15 12:54:00;;;;;;;13.17;4.47;;;9.10;99.90;;;;;;5027445;28;20220;-77
2023/01/15 12:56:33;;;;;;;17.10;4.07;;;9.10;99.90;;;;;;5028350;28;20301;-83
2023/01/15 12:59:07;;;;;;;14.07;3.83;;;9.10;99.90;;;;;;5028153;28;20205;-79
2023/01/15 13:01:51;;;;;;;15.33;4.10;;;9.00;99.90;;;;;;5028017;28;20225;-82
2023/01/15 13:04:24;;;;;;;16.97;3.77;;;8.90;99.90;;;;;;5034004;28;20297;-80
2023/01/15 13:06:56;;;;;;;20.97;4.80;;;8.90;99.90;;;;;;5047734;28;20186;-84
2023/01/15 13:09:37;;;;;;;18.33;4.83;;;8.80;99.90;;;;;;5035620;23;20337;-82
2023/01/15 13:12:10;;;;;;;16.17;4.87;;;8.70;99.90;;;;;;5020119;28;20261;-81
2023/01/15 13:14:37;;;;;;;21.33;3.80;;;8.70;99.90;;;;;;5022974;28;20187;-80
2023/01/15 13:17:08;;;;;;;16.10;5.90;;;8.60;99.90;;;;;;5026949;28;20210;-80
2023/01/15 13:19:45;;;;;;;15.93;3.57;;;8.50;99.90;;;;;;5023764;28;20226;-79
2023/01/15 13:22:16;;;;;;;12.47;3.30;;;8.40;99.90;;;;;;5023046;28;20257;-80
2023/01/15 13:25:09;;;;;;;19.57;3.73;;;8.30;99.90;;;;;;5027256;28;20595;-82
2023/01/15 13:27:59;;;;;;;12.90;3.10;;;8.30;99.90;;;;;;5022883;28;20213;-82
2023/01/15 13:30:51;;;;;;;14.87;5.00;;;8.20;99.90;;;;;;5018403;28;20657;-80
2023/01/15 13:33:27;;;;;;;20.33;4.30;;;8.20;99.90;;;;;;5018728;28;20222;-80
2023/01/15 13:36:03;;;;;;;19.13;3.43;;;8.20;99.90;;;;;;5026892;28;20325;-80
2023/01/15 13:38:33;;;;;;;24.30;4.20;;;8.20;99.90;;;;;;5027360;28;20714;-79
2023/01/15 13:42:30;;;;;;;14.83;4.40;;;8.10;99.90;;;;;;5024828;28;20341;-81
2023/01/15 13:44:17;;;;;;;18.90;5.13;;;8.00;99.90;;;;;;5024529;28;20260;-81
2023/01/15 13:46:45;;;;;;;18.57;4.67;;;8.00;99.90;;;;;;5026758;28;20238;-80
2023/01/15 13:49:20;;;;;;;15.10;3.60;;;7.90;99.90;;;;;;5028253;28;20293;-82
2023/01/15 13:51:49;;;;;;;22.47;6.10;;;7.90;99.90;;;;;;5025859;28;20182;-81
2023/01/15 13:54:19;;;;;;;34.03;6.00;;;7.90;99.90;;;;;;5028008;28;20512;-80
2023/01/15 13:56:50;;;;;;;15.00;4.70;;;7.80;99.90;;;;;;5009603;28;20225;-81
2023/01/15 13:59:39;;;;;;;18.60;5.70;;;7.80;99.90;;;;;;5008014;28;20207;-82
2023/01/15 14:02:28;;;;;;;20.23;5.63;;;7.80;99.90;;;;;;5008819;28;20293;-81